Time;durP1;ratioP1;P1;durP2;ratioP2;P2;SDS_P1;SDS_P2;PMS_P1;PMS_P2;Temp;Humidity;BMP_temperature;BMP_pressure;BME280_temperature;BME280_humidity;BME280_pressure;Samples;Min_cycle;Max_cycle;Signal;HPM_P1;HPM_P2
2023/01/30 00:03:54;;;;;;;16.95;10.50;;;;;;;;;;8331669;28;20041;-63
2023/01/30 00:07:55;;;;;;;17.48;10.38;;;;;;;;;;8331077;28;20302;-63
2023/01/30 00:11:55;;;;;;;16.40;10.10;;;;;;;;;;8332060;28;20029;-63
2023/01/30 00:15:55;;;;;;;15.90;10.02;;;;;;;;;;8329757;28;20408;-63
2023/01/30 00:19:55;;;;;;;18.27;10.35;;;;;;;;;;8332921;28;20021;-63
2023/01/30 00:23:55;;;;;;;17.50;10.27;;;;;;;;;;8331808;28;20021;-63
2023/01/30 00:27:58;;;;;;;17.10;10.68;;;;;;;;;;8331050;28;20703;-63
2023/01/30 00:31:58;;;;;;;15.55;9.70;;;;;;;;;;8329913;28;20883;-63
2023/01/30 00:36:00;;;;;;;19.75;12.13;;;;;;;;;;8329011;28;20033;-63
2023/01/30 00:40:00;;;;;;;17.33;9.75;;;;;;;;;;8330640;28;20029;-63
2023/01/30 00:48:19;;;;;;;21.98;11.85;;;;;;;;;;8328816;28;20366;-63
2023/01/30 00:52:19;;;;;;;15.90;10.45;;;;;;;;;;8331752;28;20029;-63
2023/01/30 00:56:20;;;;;;;16.85;10.50;;;;;;;;;;8329519;28;20053;-63
2023/01/30 01:00:22;;;;;;;16.55;10.02;;;;;;;;;;8328445;28;20116;-64
2023/01/30 01:04:22;;;;;;;18.10;10.98;;;;;;;;;;8332478;28;20283;-63
2023/01/30 01:08:22;;;;;;;17.00;10.32;;;;;;;;;;8328887;28;20092;-64
2023/01/30 01:12:22;;;;;;;18.20;11.27;;;;;;;;;;8331396;28;20025;-63
2023/01/30 01:16:23;;;;;;;19.45;11.75;;;;;;;;;;8327799;28;20056;-63
2023/01/30 01:20:23;;;;;;;24.05;13.93;;;;;;;;;;8327198;28;23011;-63
2023/01/30 01:24:24;;;;;;;19.25;10.98;;;;;;;;;;8327388;28;20032;-63
2023/01/30 01:28:24;;;;;;;18.20;10.65;;;;;;;;;;8329273;28;20025;-63
2023/01/30 01:32:24;;;;;;;19.08;11.88;;;;;;;;;;8328727;28;20071;-64
2023/01/30 01:36:24;;;;;;;16.38;10.63;;;;;;;;;;8330577;28;20033;-63
2023/01/30 01:45:13;;;;;;;18.65;11.23;;;;;;;;;;8330377;28;20081;-63
2023/01/30 01:49:15;;;;;;;18.55;11.30;;;;;;;;;;8339931;28;20052;-63
2023/01/30 01:53:17;;;;;;;20.38;11.48;;;;;;;;;;8341436;28;20028;-63
2023/01/30 01:57:21;;;;;;;20.33;12.07;;;;;;;;;;8340605;28;20028;-63
2023/01/30 02:01:21;;;;;;;21.02;11.90;;;;;;;;;;8340348;28;20032;-63
2023/01/30 02:05:23;;;;;;;19.42;11.85;;;;;;;;;;8338825;28;20017;-63
2023/01/30 02:09:23;;;;;;;25.48;12.80;;;;;;;;;;8340256;28;20017;-63
2023/01/30 02:13:24;;;;;;;22.70;12.20;;;;;;;;;;8340269;28;20029;-63
2023/01/30 02:17:24;;;;;;;22.55;13.32;;;;;;;;;;8339213;28;20592;-63
2023/01/30 02:21:24;;;;;;;21.63;13.23;;;;;;;;;;8340310;28;20128;-63
2023/01/30 02:25:27;;;;;;;22.92;13.68;;;;;;;;;;8338926;28;20795;-63
2023/01/30 02:29:37;;;;;;;26.30;13.43;;;;;;;;;;8338552;28;20433;-63
2023/01/30 02:33:51;;;;;;;23.27;13.82;;;;;;;;;;8352976;28;20041;-63
2023/01/30 02:37:51;;;;;;;26.67;14.83;;;;;;;;;;8337893;28;20027;-64
2023/01/30 02:42:30;;;;;;;25.10;13.60;;;;;;;;;;8339250;28;20052;-63
2023/01/30 02:46:31;;;;;;;23.98;13.50;;;;;;;;;;8257089;28;20029;-63
2023/01/30 02:50:33;;;;;;;23.42;14.10;;;;;;;;;;8298159;28;20095;-63
2023/01/30 02:54:33;;;;;;;26.27;13.25;;;;;;;;;;8337070;28;20056;-63
2023/01/30 02:58:37;;;;;;;25.70;15.90;;;;;;;;;;8332633;28;20033;-63
2023/01/30 03:02:43;;;;;;;24.70;13.63;;;;;;;;;;8331060;28;20105;-64
2023/01/30 03:06:50;;;;;;;25.40;15.05;;;;;;;;;;8333622;28;20013;-63
2023/01/30 03:11:02;;;;;;;23.52;13.80;;;;;;;;;;8333675;28;20025;-63
2023/01/30 03:15:07;;;;;;;25.02;13.50;;;;;;;;;;8331812;28;20061;-64
2023/01/30 03:19:11;;;;;;;23.90;13.70;;;;;;;;;;8331627;28;20281;-63
2023/01/30 03:23:12;;;;;;;22.20;12.75;;;;;;;;;;8333708;28;20040;-63
2023/01/30 03:27:13;;;;;;;22.80;12.73;;;;;;;;;;8331154;28;20021;-63
2023/01/30 03:31:16;;;;;;;24.98;14.05;;;;;;;;;;8331401;28;20469;-63
2023/01/30 03:35:17;;;;;;;25.77;14.10;;;;;;;;;;8334067;28;20734;-63
2023/01/30 03:39:17;;;;;;;22.77;13.10;;;;;;;;;;8331255;28;20793;-63
2023/01/30 03:43:17;;;;;;;24.38;12.75;;;;;;;;;;8330947;28;20409;-63
2023/01/30 03:47:17;;;;;;;25.85;14.68;;;;;;;;;;8329912;28;20263;-63
2023/01/30 03:51:18;;;;;;;22.85;13.43;;;;;;;;;;8331518;28;20029;-63
2023/01/30 03:55:18;;;;;;;25.08;13.98;;;;;;;;;;8330614;28;20115;-63
2023/01/30 03:59:18;;;;;;;25.05;14.50;;;;;;;;;;8331653;28;20052;-63
2023/01/30 04:03:18;;;;;;;24.15;14.27;;;;;;;;;;8330978;28;20029;-63
2023/01/30 04:07:18;;;;;;;26.20;15.35;;;;;;;;;;8329518;28;20054;-63
2023/01/30 04:11:19;;;;;;;26.85;14.80;;;;;;;;;;8330418;28;20904;-63
2023/01/30 04:15:19;;;;;;;25.23;14.63;;;;;;;;;;8329688;28;20673;-63
2023/01/30 04:19:19;;;;;;;24.73;14.48;;;;;;;;;;8330737;28;20033;-63
2023/01/30 04:23:19;;;;;;;26.95;15.45;;;;;;;;;;8329039;28;20057;-63
2023/01/30 04:27:19;;;;;;;24.63;14.18;;;;;;;;;;8330172;28;20597;-63
2023/01/30 04:31:20;;;;;;;23.52;14.48;;;;;;;;;;8329597;28;20040;-63
2023/01/30 04:35:20;;;;;;;24.77;14.65;;;;;;;;;;8329632;28;20029;-63
2023/01/30 04:39:20;;;;;;;22.90;14.25;;;;;;;;;;8327622;28;20029;-63
2023/01/30 04:43:21;;;;;;;25.08;14.57;;;;;;;;;;8331797;28;20029;-64
2023/01/30 04:47:22;;;;;;;22.02;13.98;;;;;;;;;;8327499;28;20051;-64
2023/01/30 04:51:22;;;;;;;29.45;17.65;;;;;;;;;;8329547;28;20017;-63
2023/01/30 04:55:22;;;;;;;24.90;14.35;;;;;;;;;;8327994;28;20032;-63
2023/01/30 04:59:22;;;;;;;22.60;13.32;;;;;;;;;;8328801;28;20025;-63
2023/01/30 05:03:22;;;;;;;22.50;13.23;;;;;;;;;;8328826;28;20071;-63
2023/01/30 05:07:22;;;;;;;21.67;13.52;;;;;;;;;;8327879;28;20021;-63
2023/01/30 05:11:23;;;;;;;24.52;12.55;;;;;;;;;;8328147;28;20025;-63
2023/01/30 05:15:24;;;;;;;18.17;11.75;;;;;;;;;;8328301;28;20084;-63
2023/01/30 05:19:24;;;;;;;18.95;11.52;;;;;;;;;;8328717;28;20013;-63
2023/01/30 05:23:24;;;;;;;18.92;10.73;;;;;;;;;;8326242;28;20287;-63
2023/01/30 05:27:24;;;;;;;18.20;11.02;;;;;;;;;;8327792;28;20033;-63
2023/01/30 05:31:24;;;;;;;16.88;11.05;;;;;;;;;;8325409;28;20489;-63
2023/01/30 05:35:24;;;;;;;19.23;11.20;;;;;;;;;;8325874;28;20039;-63
2023/01/30 05:39:25;;;;;;;19.00;11.15;;;;;;;;;;8325918;28;20044;-63
2023/01/30 05:43:25;;;;;;;17.52;10.63;;;;;;;;;;8325576;28;20025;-63
2023/01/30 05:47:25;;;;;;;18.40;11.48;;;;;;;;;;8328002;28;20408;-63
2023/01/30 05:51:26;;;;;;;16.83;10.07;;;;;;;;;;8326121;28;20645;-63
2023/01/30 05:55:26;;;;;;;17.88;10.75;;;;;;;;;;8327622;28;20051;-63
2023/01/30 05:59:26;;;;;;;20.42;12.45;;;;;;;;;;8324683;28;22392;-63
2023/01/30 06:03:26;;;;;;;16.77;10.25;;;;;;;;;;8325338;28;20604;-63
2023/01/30 06:07:27;;;;;;;17.88;10.73;;;;;;;;;;8326982;28;20013;-63
2023/01/30 06:11:27;;;;;;;19.42;11.40;;;;;;;;;;8329676;28;20405;-63
2023/01/30 06:15:27;;;;;;;13.95;9.40;;;;;;;;;;8321416;28;20633;-63
2023/01/30 06:19:27;;;;;;;20.33;12.65;;;;;;;;;;8326597;28;20048;-63
2023/01/30 06:23:27;;;;;;;15.43;10.35;;;;;;;;;;8324957;28;20029;-63
2023/01/30 06:27:27;;;;;;;17.17;10.60;;;;;;;;;;8324426;28;20017;-63
2023/01/30 06:31:28;;;;;;;15.40;9.65;;;;;;;;;;8329727;28;20287;-63
2023/01/30 06:35:28;;;;;;;16.63;10.07;;;;;;;;;;8332383;28;20491;-63
2023/01/30 06:39:28;;;;;;;15.18;10.25;;;;;;;;;;8331665;28;20052;-63
2023/01/30 06:43:28;;;;;;;14.05;9.25;;;;;;;;;;8333291;28;20610;-63
2023/01/30 06:47:28;;;;;;;15.00;8.98;;;;;;;;;;8331085;28;20764;-63
2023/01/30 06:51:29;;;;;;;16.05;9.57;;;;;;;;;;8330788;28;20453;-64
2023/01/30 06:55:29;;;;;;;15.88;10.05;;;;;;;;;;8324797;28;20021;-63
2023/01/30 06:59:29;;;;;;;13.68;8.63;;;;;;;;;;8323351;28;20028;-63
2023/01/30 07:03:29;;;;;;;15.65;9.52;;;;;;;;;;8327317;28;20484;-63
2023/01/30 07:07:30;;;;;;;13.98;9.52;;;;;;;;;;8325728;28;20080;-63
2023/01/30 07:11:30;;;;;;;14.98;9.23;;;;;;;;;;8326307;28;20025;-63
2023/01/30 07:15:31;;;;;;;14.40;9.00;;;;;;;;;;8323839;28;20536;-64
2023/01/30 07:19:31;;;;;;;17.70;11.63;;;;;;;;;;8326313;28;20469;-63
2023/01/30 07:23:31;;;;;;;13.30;8.82;;;;;;;;;;8327686;28;20287;-63
2023/01/30 07:27:31;;;;;;;15.27;9.80;;;;;;;;;;8327069;28;20028;-63
2023/01/30 07:31:31;;;;;;;14.40;9.45;;;;;;;;;;8324346;28;20029;-63
2023/01/30 07:35:33;;;;;;;16.45;10.02;;;;;;;;;;8324904;28;20496;-63
2023/01/30 07:39:34;;;;;;;20.05;11.63;;;;;;;;;;8326636;28;20024;-63
2023/01/30 07:43:34;;;;;;;14.80;9.45;;;;;;;;;;8324198;28;20025;-63
2023/01/30 07:47:34;;;;;;;16.05;9.15;;;;;;;;;;8325427;28;20587;-63
2023/01/30 07:51:34;;;;;;;13.65;9.95;;;;;;;;;;8324200;28;20035;-63
2023/01/30 07:55:35;;;;;;;13.77;8.43;;;;;;;;;;8324979;28;20072;-63
2023/01/30 07:59:35;;;;;;;11.25;8.40;;;;;;;;;;8327971;28;20032;-63
2023/01/30 08:03:35;;;;;;;17.40;11.38;;;;;;;;;;8324037;28;20056;-63
2023/01/30 08:07:35;;;;;;;15.27;10.23;;;;;;;;;;8324020;28;20557;-63
2023/01/30 08:11:35;;;;;;;14.60;9.38;;;;;;;;;;8325626;28;20021;-64
2023/01/30 08:15:36;;;;;;;14.13;9.60;;;;;;;;;;8323543;28;20394;-63
2023/01/30 08:19:36;;;;;;;9.80;7.07;;;;;;;;;;8325435;28;20482;-63
2023/01/30 08:23:36;;;;;;;10.77;7.20;;;;;;;;;;8325020;28;20028;-63
2023/01/30 08:27:36;;;;;;;11.35;6.85;;;;;;;;;;8323542;28;20019;-63
2023/01/30 08:31:36;;;;;;;9.40;6.68;;;;;;;;;;8323806;28;20037;-63
2023/01/30 08:35:36;;;;;;;8.13;5.95;;;;;;;;;;8322276;28;21106;-63
2023/01/30 08:39:37;;;;;;;6.88;5.30;;;;;;;;;;8323545;28;20047;-63
2023/01/30 08:43:37;;;;;;;9.13;6.13;;;;;;;;;;8324630;28;20564;-63
2023/01/30 08:47:37;;;;;;;9.52;5.50;;;;;;;;;;8322158;28;20208;-63
2023/01/30 08:51:37;;;;;;;7.47;5.70;;;;;;;;;;8323547;28;20056;-64
2023/01/30 08:55:37;;;;;;;7.80;5.40;;;;;;;;;;8323924;28;20059;-63
2023/01/30 08:59:38;;;;;;;6.63;4.97;;;;;;;;;;8321306;28;20828;-64
2023/01/30 09:03:38;;;;;;;5.25;4.35;;;;;;;;;;8324735;28;20036;-64
2023/01/30 09:07:38;;;;;;;5.60;4.35;;;;;;;;;;8322057;28;20025;-63
2023/01/30 09:11:38;;;;;;;5.05;4.13;;;;;;;;;;8323543;28;20025;-63
2023/01/30 09:15:42;;;;;;;5.40;4.25;;;;;;;;;;8322704;28;20109;-64
2023/01/30 09:19:42;;;;;;;5.60;4.03;;;;;;;;;;8324125;28;20154;-64
2023/01/30 09:23:42;;;;;;;4.55;3.80;;;;;;;;;;8322890;28;20695;-64
2023/01/30 09:27:43;;;;;;;4.68;3.78;;;;;;;;;;8322521;28;20067;-64
2023/01/30 09:31:43;;;;;;;4.88;3.70;;;;;;;;;;8322064;28;20037;-64
2023/01/30 09:35:45;;;;;;;3.95;3.45;;;;;;;;;;8319927;28;20043;-63
2023/01/30 09:39:45;;;;;;;4.85;3.95;;;;;;;;;;8315727;28;20459;-63
2023/01/30 09:43:53;;;;;;;4.90;3.78;;;;;;;;;;8318916;28;20452;-64
2023/01/30 09:47:56;;;;;;;4.32;3.47;;;;;;;;;;8317276;28;20033;-64
2023/01/30 09:51:59;;;;;;;3.30;2.85;;;;;;;;;;8319924;28;20013;-64
2023/01/30 09:56:00;;;;;;;4.18;3.13;;;;;;;;;;8319127;28;20023;-64
2023/01/30 10:00:09;;;;;;;3.58;3.00;;;;;;;;;;8324155;28;20040;-65
2023/01/30 10:04:13;;;;;;;3.13;2.78;;;;;;;;;;8318274;28;20057;-65
2023/01/30 10:08:25;;;;;;;3.27;2.97;;;;;;;;;;8324101;28;20025;-65
2023/01/30 10:12:31;;;;;;;2.85;2.50;;;;;;;;;;8334286;28;20028;-65
2023/01/30 10:16:40;;;;;;;2.47;2.28;;;;;;;;;;8332603;28;20041;-65
2023/01/30 10:20:45;;;;;;;2.70;2.30;;;;;;;;;;8325229;28;20025;-64
2023/01/30 10:25:04;;;;;;;2.70;2.50;;;;;;;;;;8330144;28;20028;-65
2023/01/30 10:29:06;;;;;;;2.40;2.20;;;;;;;;;;8332827;28;21009;-64
2023/01/30 10:33:14;;;;;;;3.30;2.75;;;;;;;;;;8327297;28;20041;-65
2023/01/30 10:37:18;;;;;;;3.75;2.58;;;;;;;;;;8320166;28;20106;-64
2023/01/30 10:41:23;;;;;;;3.95;2.50;;;;;;;;;;8322407;28;20431;-64
2023/01/30 10:45:29;;;;;;;3.13;2.78;;;;;;;;;;8324165;28;20181;-65
2023/01/30 10:49:41;;;;;;;3.15;2.60;;;;;;;;;;8324495;28;20021;-65
2023/01/30 10:53:44;;;;;;;4.05;2.58;;;;;;;;;;8325273;28;20044;-64
2023/01/30 10:57:52;;;;;;;3.45;3.03;;;;;;;;;;8325352;28;20032;-64
2023/01/30 11:01:55;;;;;;;3.63;2.92;;;;;;;;;;8323530;28;20518;-64
2023/01/30 11:05:58;;;;;;;3.67;2.88;;;;;;;;;;8324286;28;20029;-65
2023/01/30 11:09:59;;;;;;;2.87;2.60;;;;;;;;;;8322444;28;20017;-64
2023/01/30 11:14:10;;;;;;;2.90;2.55;;;;;;;;;;8324180;28;20549;-65
2023/01/30 11:18:10;;;;;;;3.08;2.70;;;;;;;;;;8324061;28;20399;-65
2023/01/30 11:22:13;;;;;;;2.60;2.40;;;;;;;;;;8326162;28;20028;-65
2023/01/30 11:26:18;;;;;;;3.17;2.70;;;;;;;;;;8323614;28;20025;-65
2023/01/30 11:30:19;;;;;;;3.50;2.65;;;;;;;;;;8330428;28;20618;-65
2023/01/30 11:34:20;;;;;;;2.45;2.25;;;;;;;;;;8331566;28;20755;-66
2023/01/30 11:38:23;;;;;;;2.75;2.40;;;;;;;;;;8329836;28;20086;-65
2023/01/30 11:42:28;;;;;;;2.20;2.00;;;;;;;;;;8321626;28;20502;-65
2023/01/30 11:46:30;;;;;;;5.93;2.70;;;;;;;;;;8322577;28;20037;-66
2023/01/30 11:50:32;;;;;;;2.40;2.20;;;;;;;;;;8323191;28;20529;-65
2023/01/30 11:54:34;;;;;;;1.85;1.75;;;;;;;;;;8321937;28;20032;-65
2023/01/30 11:58:37;;;;;;;2.10;1.95;;;;;;;;;;8323219;28;20025;-65
2023/01/30 12:02:37;;;;;;;2.35;1.92;;;;;;;;;;8319446;28;20033;-65
2023/01/30 12:06:39;;;;;;;2.20;2.00;;;;;;;;;;8323405;28;20017;-65
2023/01/30 12:10:40;;;;;;;2.33;2.03;;;;;;;;;;8320595;28;20554;-64
2023/01/30 12:14:44;;;;;;;2.60;2.40;;;;;;;;;;8321879;28;20020;-65
2023/01/30 12:19:03;;;;;;;2.58;2.38;;;;;;;;;;8321527;28;20151;-65
2023/01/30 12:23:06;;;;;;;2.70;2.40;;;;;;;;;;8322144;28;20029;-66
2023/01/30 12:27:20;;;;;;;2.78;2.47;;;;;;;;;;8320980;28;20540;-65
2023/01/30 12:31:20;;;;;;;2.60;2.40;;;;;;;;;;8321447;28;20099;-65
2023/01/30 12:35:24;;;;;;;2.80;2.47;;;;;;;;;;8321058;28;20032;-65
2023/01/30 12:39:24;;;;;;;4.90;2.80;;;;;;;;;;8316947;28;20131;-65
2023/01/30 12:43:33;;;;;;;3.15;2.50;;;;;;;;;;8321665;28;20295;-65
2023/01/30 12:47:47;;;;;;;3.15;2.78;;;;;;;;;;8319852;28;20033;-65
2023/01/30 12:52:01;;;;;;;3.60;2.97;;;;;;;;;;8321814;28;20027;-65
2023/01/30 12:56:20;;;;;;;3.45;3.08;;;;;;;;;;8321749;28;20508;-65
2023/01/30 13:00:20;;;;;;;5.03;3.72;;;;;;;;;;8318987;28;20371;-65
2023/01/30 13:04:40;;;;;;;3.53;3.22;;;;;;;;;;8321205;28;20029;-65
2023/01/30 13:08:46;;;;;;;5.85;3.65;;;;;;;;;;8321959;28;20021;-65
2023/01/30 13:13:05;;;;;;;3.65;3.30;;;;;;;;;;8320062;28;20078;-65
2023/01/30 13:17:14;;;;;;;6.32;3.78;;;;;;;;;;8319233;28;20525;-65
2023/01/30 13:21:14;;;;;;;3.78;3.47;;;;;;;;;;8320344;28;20041;-65
2023/01/30 13:25:14;;;;;;;4.45;3.60;;;;;;;;;;8319882;28;20170;-65
2023/01/30 13:29:14;;;;;;;4.67;3.50;;;;;;;;;;8316484;28;20033;-65
2023/01/30 13:33:20;;;;;;;4.05;3.50;;;;;;;;;;8324615;28;20290;-65
2023/01/30 13:37:20;;;;;;;3.80;3.40;;;;;;;;;;8319097;28;20099;-65
2023/01/30 13:41:22;;;;;;;4.95;3.60;;;;;;;;;;8319398;28;20028;-65
2023/01/30 13:45:28;;;;;;;4.70;3.70;;;;;;;;;;8318078;28;21447;-65
2023/01/30 13:49:38;;;;;;;4.93;3.42;;;;;;;;;;8319705;28;20033;-66
2023/01/30 13:53:39;;;;;;;5.38;3.22;;;;;;;;;;8319827;28;20477;-65
2023/01/30 13:57:46;;;;;;;4.60;3.40;;;;;;;;;;8318715;28;20032;-65
2023/01/30 14:01:58;;;;;;;3.20;2.90;;;;;;;;;;8309460;28;20037;-65
2023/01/30 14:06:00;;;;;;;5.28;3.35;;;;;;;;;;8318142;28;20036;-65
2023/01/30 14:10:03;;;;;;;5.25;3.50;;;;;;;;;;8319439;28;20031;-65
2023/01/30 14:14:03;;;;;;;4.07;3.50;;;;;;;;;;8319494;28;20974;-66
2023/01/30 14:18:06;;;;;;;4.90;2.95;;;;;;;;;;8317128;28;20041;-65
2023/01/30 14:22:23;;;;;;;4.22;3.08;;;;;;;;;;8318745;28;20032;-65
2023/01/30 14:26:43;;;;;;;5.30;3.00;;;;;;;;;;8318128;28;20017;-65
2023/01/30 14:30:43;;;;;;;4.68;3.20;;;;;;;;;;8317736;28;20041;-66
2023/01/30 14:34:44;;;;;;;2.90;2.33;;;;;;;;;;8316800;28;20036;-65
2023/01/30 14:38:55;;;;;;;3.13;2.53;;;;;;;;;;8314133;28;20033;-65
2023/01/30 14:43:21;;;;;;;6.35;2.90;;;;;;;;;;8317244;28;20036;-66
2023/01/30 14:47:21;;;;;;;6.20;2.97;;;;;;;;;;8308771;28;20068;-65
2023/01/30 14:51:25;;;;;;;3.78;2.65;;;;;;;;;;8320673;28;20042;-66
2023/01/30 14:55:28;;;;;;;4.22;2.92;;;;;;;;;;8325800;28;20445;-66
2023/01/30 14:59:33;;;;;;;4.82;2.67;;;;;;;;;;8324904;28;20053;-65
2023/01/30 15:03:38;;;;;;;3.42;2.42;;;;;;;;;;8325738;28;20091;-66
2023/01/30 15:07:41;;;;;;;3.80;2.53;;;;;;;;;;8322515;28;20297;-65
2023/01/30 15:11:41;;;;;;;3.78;2.72;;;;;;;;;;8325564;28;20116;-65
2023/01/30 15:16:02;;;;;;;5.07;2.78;;;;;;;;;;8323265;28;20398;-66
2023/01/30 15:20:11;;;;;;;3.95;2.20;;;;;;;;;;8318008;28;20098;-66
2023/01/30 15:24:30;;;;;;;7.85;2.40;;;;;;;;;;8322747;28;20029;-65
2023/01/30 15:28:49;;;;;;;6.65;2.60;;;;;;;;;;8323518;28;20051;-65
2023/01/30 15:33:05;;;;;;;4.28;2.60;;;;;;;;;;8321286;28;20099;-66
2023/01/30 15:37:13;;;;;;;4.45;2.30;;;;;;;;;;8323393;28;20249;-66
2023/01/30 15:41:14;;;;;;;5.13;2.55;;;;;;;;;;8322325;28;20040;-65
2023/01/30 15:45:29;;;;;;;5.28;2.20;;;;;;;;;;8321957;28;20685;-66
2023/01/30 15:49:48;;;;;;;3.63;2.13;;;;;;;;;;8319029;28;20460;-66
2023/01/30 15:53:48;;;;;;;5.45;2.13;;;;;;;;;;8323080;28;20029;-65
2023/01/30 15:57:51;;;;;;;7.33;2.70;;;;;;;;;;8321720;28;20028;-65
2023/01/30 16:02:06;;;;;;;4.63;2.00;;;;;;;;;;8314151;28;20276;-66
2023/01/30 16:06:19;;;;;;;6.82;2.13;;;;;;;;;;8320079;28;20037;-65
2023/01/30 16:10:24;;;;;;;4.22;2.38;;;;;;;;;;8322134;28;20118;-65
2023/01/30 16:14:24;;;;;;;;;;;;;;;;;;8322713;28;20541;-66
2023/01/30 16:18:27;;;;;;;7.47;1.83;;;;;;;;;;8320633;28;19924;-65
2023/01/30 16:22:30;;;;;;;9.68;2.72;;;;;;;;;;8320718;28;20029;-66
2023/01/30 16:26:32;;;;;;;5.40;2.28;;;;;;;;;;8318832;28;20427;-65
2023/01/30 16:30:33;;;;;;;6.65;2.60;;;;;;;;;;8319914;28;20528;-65
2023/01/30 16:34:34;;;;;;;9.85;2.45;;;;;;;;;;8321482;28;20052;-65
2023/01/30 16:38:36;;;;;;;5.15;2.35;;;;;;;;;;8319707;28;20036;-65
2023/01/30 16:42:36;;;;;;;12.60;3.22;;;;;;;;;;8319817;28;20071;-65
2023/01/30 16:46:50;;;;;;;6.43;3.00;;;;;;;;;;8318882;28;20092;-65
2023/01/30 16:50:57;;;;;;;5.68;2.60;;;;;;;;;;8321344;28;20021;-65
2023/01/30 16:54:58;;;;;;;6.85;2.75;;;;;;;;;;8320473;28;20444;-65
2023/01/30 16:58:59;;;;;;;7.43;3.40;;;;;;;;;;8318526;28;20032;-65
2023/01/30 17:03:01;;;;;;;5.88;3.20;;;;;;;;;;8318441;28;20463;-65
2023/01/30 17:07:03;;;;;;;6.28;2.60;;;;;;;;;;8320541;28;20017;-64
2023/01/30 17:11:03;;;;;;;8.60;2.75;;;;;;;;;;8321194;28;20033;-65
2023/01/30 17:15:12;;;;;;;6.47;2.38;;;;;;;;;;8317633;28;20139;-65
2023/01/30 17:19:13;;;;;;;9.68;3.20;;;;;;;;;;8317846;28;20813;-64
2023/01/30 17:23:16;;;;;;;7.25;2.78;;;;;;;;;;8319456;28;20047;-64
2023/01/30 17:27:16;;;;;;;5.38;2.42;;;;;;;;;;8319649;28;20158;-64
2023/01/30 17:31:16;;;;;;;10.63;3.47;;;;;;;;;;8319059;28;20061;-64
2023/01/30 17:35:17;;;;;;;9.25;2.47;;;;;;;;;;8318902;28;20033;-64
2023/01/30 17:39:18;;;;;;;6.22;2.00;;;;;;;;;;8318049;28;20489;-64
2023/01/30 17:43:18;;;;;;;7.28;2.50;;;;;;;;;;8319154;28;20059;-64
2023/01/30 17:47:20;;;;;;;8.30;2.25;;;;;;;;;;8319124;28;20074;-64
2023/01/30 17:51:20;;;;;;;5.05;2.13;;;;;;;;;;8320203;28;20119;-64
2023/01/30 17:55:21;;;;;;;6.90;2.53;;;;;;;;;;8322102;28;20380;-64
2023/01/30 17:59:21;;;;;;;9.43;2.47;;;;;;;;;;8323097;28;20039;-64
2023/01/30 18:03:21;;;;;;;9.32;2.40;;;;;;;;;;8322895;28;20897;-64
2023/01/30 18:07:21;;;;;;;7.45;2.53;;;;;;;;;;8321927;28;20027;-64
2023/01/30 18:11:22;;;;;;;7.23;2.00;;;;;;;;;;8322148;28;20024;-64
2023/01/30 18:15:22;;;;;;;8.18;2.13;;;;;;;;;;8321259;28;20271;-64
2023/01/30 18:19:22;;;;;;;5.28;2.28;;;;;;;;;;8322249;28;20033;-64
2023/01/30 18:23:23;;;;;;;8.05;2.92;;;;;;;;;;8322409;28;20035;-64
2023/01/30 18:27:23;;;;;;;8.40;2.65;;;;;;;;;;8325870;28;20224;-64
2023/01/30 18:31:24;;;;;;;6.75;2.40;;;;;;;;;;8327277;28;20264;-64
2023/01/30 18:35:24;;;;;;;12.55;3.10;;;;;;;;;;8329026;28;20596;-64
2023/01/30 18:39:24;;;;;;;6.93;2.50;;;;;;;;;;8327303;28;20040;-63
2023/01/30 18:43:24;;;;;;;9.07;2.85;;;;;;;;;;8329106;28;20526;-63
2023/01/30 18:47:27;;;;;;;8.90;2.53;;;;;;;;;;8327711;28;20532;-64
2023/01/30 18:51:28;;;;;;;11.13;2.80;;;;;;;;;;8328483;28;20048;-64
2023/01/30 18:55:29;;;;;;;8.10;2.83;;;;;;;;;;8328705;28;20033;-64
2023/01/30 18:59:29;;;;;;;9.80;3.30;;;;;;;;;;8327987;28;20036;-63
2023/01/30 19:03:29;;;;;;;10.98;3.72;;;;;;;;;;8328477;28;20043;-64
2023/01/30 19:07:29;;;;;;;8.13;3.33;;;;;;;;;;8327967;28;20032;-64
2023/01/30 19:15:48;;;;;;;11.25;3.47;;;;;;;;;;8325797;28;20122;-64
2023/01/30 19:19:49;;;;;;;11.57;3.10;;;;;;;;;;8328369;28;20017;-64
2023/01/30 19:23:49;;;;;;;8.05;3.20;;;;;;;;;;8326925;28;20029;-64
2023/01/30 19:27:49;;;;;;;9.82;2.50;;;;;;;;;;8327223;28;20283;-64
2023/01/30 19:31:49;;;;;;;9.10;3.38;;;;;;;;;;8325042;28;20275;-63
2023/01/30 19:35:50;;;;;;;11.95;3.45;;;;;;;;;;8326685;28;20029;-64
2023/01/30 19:39:50;;;;;;;12.52;3.20;;;;;;;;;;8323978;28;20432;-64
2023/01/30 19:43:51;;;;;;;8.90;2.83;;;;;;;;;;8326300;28;20055;-65
2023/01/30 19:47:51;;;;;;;12.80;3.17;;;;;;;;;;8324831;28;20037;-64
2023/01/30 19:51:51;;;;;;;7.53;2.55;;;;;;;;;;8324858;28;20474;-63
2023/01/30 19:55:52;;;;;;;7.27;2.50;;;;;;;;;;8324211;28;20064;-63
2023/01/30 19:59:52;;;;;;;10.60;2.30;;;;;;;;;;8322727;28;20515;-63
2023/01/30 20:03:52;;;;;;;10.18;2.67;;;;;;;;;;8321532;28;20152;-63
2023/01/30 20:07:52;;;;;;;8.38;2.08;;;;;;;;;;8320812;28;20791;-64
2023/01/30 20:11:52;;;;;;;8.43;2.42;;;;;;;;;;8322912;28;20627;-64
2023/01/30 20:15:55;;;;;;;12.05;3.25;;;;;;;;;;8322290;28;20037;-63
2023/01/30 20:19:55;;;;;;;15.15;3.00;;;;;;;;;;8320778;28;20214;-63
2023/01/30 20:23:55;;;;;;;11.73;3.08;;;;;;;;;;8322574;28;20024;-63
2023/01/30 20:27:56;;;;;;;15.70;3.55;;;;;;;;;;8322767;28;20056;-63
2023/01/30 20:31:56;;;;;;;10.88;2.85;;;;;;;;;;8321522;28;20867;-63
2023/01/30 20:36:00;;;;;;;12.02;3.00;;;;;;;;;;8320315;28;20951;-63
2023/01/30 20:40:00;;;;;;;7.88;3.13;;;;;;;;;;8320952;28;20808;-63
2023/01/30 20:44:00;;;;;;;14.75;3.17;;;;;;;;;;8317332;28;20313;-63
2023/01/30 20:48:02;;;;;;;8.55;3.00;;;;;;;;;;8316619;28;20076;-63
2023/01/30 20:52:02;;;;;;;16.63;3.47;;;;;;;;;;8317110;28;20375;-63
2023/01/30 20:56:02;;;;;;;10.25;3.38;;;;;;;;;;8317811;28;20166;-63
2023/01/30 21:00:04;;;;;;;12.88;3.15;;;;;;;;;;8316891;28;20081;-64
2023/01/30 21:04:05;;;;;;;12.00;2.95;;;;;;;;;;8316373;28;20032;-63
2023/01/30 21:08:06;;;;;;;11.20;3.08;;;;;;;;;;8315360;28;20052;-63
2023/01/30 21:12:06;;;;;;;10.77;3.03;;;;;;;;;;8317151;28;20033;-63
2023/01/30 21:16:10;;;;;;;12.20;3.30;;;;;;;;;;8312284;28;20095;-63
2023/01/30 21:20:11;;;;;;;9.40;2.67;;;;;;;;;;8316174;28;20094;-63
2023/01/30 21:24:12;;;;;;;13.43;2.75;;;;;;;;;;8313132;28;20021;-63
2023/01/30 21:28:12;;;;;;;12.27;2.58;;;;;;;;;;8314513;28;20025;-64
2023/01/30 21:32:12;;;;;;;12.27;2.72;;;;;;;;;;8311502;28;20521;-63
2023/01/30 21:36:12;;;;;;;11.88;3.00;;;;;;;;;;8322225;28;20106;-64
2023/01/30 21:44:35;;;;;;;16.25;3.33;;;;;;;;;;8325356;28;20166;-64
2023/01/30 21:48:36;;;;;;;11.25;3.17;;;;;;;;;;8322212;28;20099;-64
2023/01/30 21:52:36;;;;;;;12.38;2.95;;;;;;;;;;8327252;28;20021;-64
2023/01/30 21:56:36;;;;;;;14.55;3.75;;;;;;;;;;8327643;28;20025;-64
2023/01/30 22:00:36;;;;;;;10.75;2.75;;;;;;;;;;8327345;28;20254;-63
2023/01/30 22:04:36;;;;;;;9.85;2.83;;;;;;;;;;8335171;28;20111;-64
2023/01/30 22:08:38;;;;;;;11.65;2.40;;;;;;;;;;8331390;28;20017;-63
2023/01/30 22:12:40;;;;;;;10.98;2.80;;;;;;;;;;8335247;28;20140;-63
2023/01/30 22:16:40;;;;;;;12.80;2.78;;;;;;;;;;8332790;28;20072;-64
2023/01/30 22:20:40;;;;;;;10.73;2.50;;;;;;;;;;8334282;28;20032;-63
2023/01/30 22:24:41;;;;;;;11.68;2.53;;;;;;;;;;8333692;28;20549;-63
2023/01/30 22:28:41;;;;;;;7.78;2.30;;;;;;;;;;8334546;28;20021;-63
2023/01/30 22:32:41;;;;;;;14.43;2.65;;;;;;;;;;8330963;28;20115;-63
2023/01/30 22:36:42;;;;;;;10.07;2.30;;;;;;;;;;8334967;28;20025;-64
2023/01/30 22:40:42;;;;;;;12.15;2.30;;;;;;;;;;8332809;28;20017;-64
2023/01/30 22:44:42;;;;;;;10.13;2.88;;;;;;;;;;8333591;28;20841;-64
2023/01/30 22:48:43;;;;;;;10.50;2.28;;;;;;;;;;8336024;28;20041;-64
2023/01/30 22:52:43;;;;;;;14.20;2.65;;;;;;;;;;8334843;28;20036;-63
2023/01/30 22:56:44;;;;;;;10.05;2.83;;;;;;;;;;8334349;28;20013;-64
2023/01/30 23:00:44;;;;;;;13.90;2.92;;;;;;;;;;8335146;28;20056;-63
2023/01/30 23:04:45;;;;;;;8.93;2.70;;;;;;;;;;8334408;28;20035;-64
2023/01/30 23:08:45;;;;;;;9.38;2.70;;;;;;;;;;8333744;28;20669;-63
2023/01/30 23:18:53;;;;;;;14.88;2.53;;;;;;;;;;8333206;28;20044;-64
2023/01/30 23:21:25;;;;;;;13.48;2.70;;;;;;;;;;8325873;28;20035;-63
2023/01/30 23:25:26;;;;;;;10.70;2.40;;;;;;;;;;8326217;28;20029;-63
2023/01/30 23:29:26;;;;;;;16.40;3.08;;;;;;;;;;8328466;28;20255;-64
2023/01/30 23:33:26;;;;;;;13.68;3.00;;;;;;;;;;8325433;28;20237;-63
2023/01/30 23:41:50;;;;;;;11.68;2.60;;;;;;;;;;8314430;28;20513;-64
2023/01/30 23:45:52;;;;;;;12.98;2.42;;;;;;;;;;8326124;28;20045;-64
2023/01/30 23:49:52;;;;;;;8.45;2.15;;;;;;;;;;8327320;28;20029;-63
2023/01/30 23:53:53;;;;;;;8.40;2.60;;;;;;;;;;8326381;28;20385;-63
2023/01/30 23:57:53;;;;;;;10.63;2.33;;;;;;;;;;8325218;28;20106;-63
